Terminal Aerodrome Forecast
Issued by NWS Cleveland, OH

Home | Current Version | Previous Version | Graphics & Text | Print | Product List | Glossary Off
Versions: 1 2 3 4 5 6 7 8 9 10 11 12 13 14 15 16

000
FTUS41 KCLE 221524 AAB
TAFMFD
TAF AMD
KMFD 221524Z 2215/2312 22012G22KT P6SM -SHRA VCTS BKN040CB BKN110
     FM221800 24013G23KT P6SM -TSRA SCT040CB BKN090
      TEMPO 2219/2221 4SM -TSRA BKN030CB OVC060
     FM230000 29011KT P6SM SCT025 BKN060
     FM230200 30010KT P6SM SCT090
     FM230600 30005KT P6SM SKC=

USA.gov is the U.S. government's official web portal to all federal, state and local government web resources and services.